Time;durP1;ratioP1;P1;durP2;ratioP2;P2;SDS_P1;SDS_P2;PMS_P1;PMS_P2;Temp;Humidity;BMP_temperature;BMP_pressure;BME280_temperature;BME280_humidity;BME280_pressure;Samples;Min_cycle;Max_cycle;Signal;HPM_P1;HPM_P2
2021/12/26 00:04:14;;;;;;;;;;;9.10;99.90;9.50;98466.00;;;;324748;29;82754;-95
2021/12/26 00:04:33;;;;;;;;;;;9.10;99.90;9.50;98463.00;;;;323472;30;85290;-95
2021/12/26 00:04:52;;;;;;;;;;;9.10;99.90;9.40;98462.00;;;;322398;30;82623;-96
2021/12/26 00:05:38;;;;;;;;;;;9.10;99.90;9.40;98459.00;;;;322213;30;84086;-95
2021/12/26 00:06:12;;;;;;;;;;;;;;;;;;;;;
2021/12/26 00:06:52;;;;;;;;;;;;;;;;;;;;;
2021/12/26 00:07:06;;;;;;;;;;;9.10;99.90;9.30;98453.00;;;;322209;30;83462;-95
2021/12/26 00:07:33;;;;;;;;;;;9.00;99.90;9.30;98468.00;;;;317709;30;83473;-95
2021/12/26 00:08:10;;;;;;;;;;;9.00;99.90;9.40;98464.00;;;;322880;30;83837;-95
2021/12/26 00:08:51;;;;;;;;;;;;;;;;;;;;;
2021/12/26 00:09:15;;;;;;;;;;;9.00;99.90;9.10;98459.00;;;;322553;30;82517;-94
2021/12/26 00:09:36;;;;;;;;;;;9.00;99.90;9.10;98453.00;;;;321401;30;84409;-95
2021/12/26 00:10:00;;;;;;;;;;;9.00;99.90;9.10;98464.00;;;;323125;30;82767;-95
2021/12/26 00:10:20;;;;;;;;;;;9.00;99.90;9.10;98468.00;;;;322541;30;85325;-95
2021/12/26 00:10:43;;;;;;;;;;;9.00;99.90;9.10;98452.00;;;;323470;30;82699;-95
2021/12/26 00:11:01;;;;;;;;;;;9.00;99.90;9.10;98462.00;;;;321317;30;84173;-95
2021/12/26 00:11:14;;;;;;;;;;;9.00;99.90;9.20;98457.00;;;;320550;30;83534;-95
2021/12/26 00:11:53;;;;;;;;;;;8.90;99.90;9.30;98463.00;;;;323718;30;85864;-95
2021/12/26 00:12:59;;;;;;;;;;;9.00;99.90;9.20;98452.00;;;;322580;30;83528;-95
2021/12/26 00:13:43;;;;;;;;;;;;;;;;;;;;;
2021/12/26 00:23:14;;;;;;;;;;;;;;;;;;;;;
2021/12/26 01:10:18;;;;;;;;;;;9.10;99.90;9.60;98472.00;;;;345078;28;82620;-95
2021/12/26 01:11:22;;;;;;;;;;;9.20;99.90;9.50;98470.00;;;;341813;28;82832;-95
2021/12/26 01:11:48;;;;;;;;;;;9.10;99.90;9.40;98466.00;;;;344266;28;83600;-95
2021/12/26 01:12:10;;;;;;;;;;;9.10;99.90;9.30;98469.00;;;;341585;28;86068;-95
2021/12/26 01:12:23;;;;;;;;;;;9.10;99.90;9.40;98463.00;;;;344357;28;82536;-95
2021/12/26 01:12:39;;;;;;;;;;;9.10;99.90;9.40;98460.00;;;;345701;28;86734;-95
2021/12/26 01:12:54;;;;;;;;;;;9.00;99.90;9.30;98470.00;;;;341670;28;82510;-95
2021/12/26 01:13:43;;;;;;;;;;;9.00;99.90;9.30;98465.00;;;;342935;28;85708;-95
2021/12/26 01:13:49;;;;;;;;;;;9.00;99.90;9.40;98467.00;;;;342748;28;82688;-95
2021/12/26 01:14:12;;;;;;;;;;;9.00;99.90;9.20;98454.00;;;;344104;28;86217;-95
2021/12/26 01:14:32;;;;;;;;;;;9.00;99.90;9.20;98469.00;;;;342848;28;83510;-96
2021/12/26 01:14:50;;;;;;;;;;;9.00;99.90;9.20;98459.00;;;;342529;28;86967;-95
2021/12/26 01:15:07;;;;;;;;;;;9.00;99.90;9.10;98468.00;;;;345717;28;82495;-95
2021/12/26 01:15:21;;;;;;;;;;;9.00;99.90;9.20;98475.00;;;;342960;28;87117;-95
2021/12/26 01:15:35;;;;;;;;;;;9.00;99.90;9.20;98466.00;;;;342723;28;83727;-94
2021/12/26 01:15:48;;;;;;;;;;;8.90;99.90;9.20;98449.00;;;;341457;28;86751;-95
2021/12/26 01:16:05;;;;;;;;;;;8.90;99.90;9.20;98468.00;;;;345635;28;82546;-95
2021/12/26 01:16:26;;;;;;;;;;;8.90;99.90;9.30;98464.00;;;;344334;28;86767;-95
2021/12/26 01:16:48;;;;;;;;;;;8.90;99.90;9.30;98467.00;;;;341588;28;83390;-95
2021/12/26 01:17:14;;;;;;;;;;;8.90;99.90;9.30;98467.00;;;;343977;28;86056;-95
2021/12/26 01:20:50;;;;;;;;;;;;;;;;;;;;;
2021/12/26 01:22:26;;;;;;;;;;;8.90;99.90;9.40;98471.00;;;;331433;29;84461;-96
2021/12/26 01:23:08;;;;;;;;;;;9.00;99.90;9.30;98471.00;;;;332197;29;82818;-96
2021/12/26 01:23:57;;;;;;;;;;;9.00;99.90;9.20;98468.00;;;;328270;29;83420;-95
2021/12/26 01:29:38;;;;;;;;;;;8.90;99.90;9.30;98471.00;;;;331742;29;82690;-95
2021/12/26 01:30:25;;;;;;;;;;;;;;;;;;;;;
2021/12/26 01:30:42;;;;;;;;;;;8.90;99.90;9.20;98468.00;;;;327122;29;82697;-96
2021/12/26 01:30:56;;;;;;;;;;;8.80;99.90;9.10;98470.00;;;;326101;29;85330;-95
2021/12/26 01:31:33;;;;;;;;;;;8.80;99.90;9.00;98469.00;;;;324947;29;83462;-95
2021/12/26 01:31:55;;;;;;;;;;;8.80;99.90;9.10;98471.00;;;;326383;29;84346;-96
2021/12/26 01:32:18;;;;;;;;;;;8.80;99.90;9.00;98473.00;;;;352041;27;75159;-96
2021/12/26 01:32:30;;;;;;;;;;;8.80;99.90;9.00;98465.00;;;;347170;28;82530;-95
2021/12/26 01:32:44;;;;;;;;;;;8.80;99.90;9.20;98468.00;;;;344472;28;85322;-96
2021/12/26 01:32:59;;;;;;;;;;;8.80;99.90;9.20;98465.00;;;;345821;28;82496;-96
2021/12/26 01:33:15;;;;;;;;;;;8.80;99.90;9.20;98466.00;;;;345750;28;87376;-95
2021/12/26 01:33:31;;;;;;;;;;;8.80;99.90;9.20;98475.00;;;;344560;28;82603;-95
2021/12/26 01:33:55;;;;;;;;;;;8.80;99.90;9.20;98473.00;;;;347251;28;85901;-95
2021/12/26 01:34:10;;;;;;;;;;;8.80;99.90;9.10;98469.00;;;;344502;28;82521;-96
2021/12/26 01:34:26;;;;;;;;;;;8.80;99.90;9.20;98476.00;;;;343691;28;86243;-96
2021/12/26 01:34:57;;;;;;;;;;;;;;;;;;;;;
2021/12/26 01:35:14;;;;;;;;;;;8.80;99.90;9.20;98470.00;;;;345752;28;85414;-96
2021/12/26 01:35:28;;;;;;;;;;;8.80;99.90;9.10;98480.00;;;;344327;28;82613;-95
2021/12/26 01:35:40;;;;;;;;;;;8.80;99.90;9.20;98477.00;;;;344364;28;85832;-95
2021/12/26 01:35:55;;;;;;;;;;;8.70;99.90;9.30;98484.00;;;;345919;28;83183;-95
2021/12/26 01:36:13;;;;;;;;;;;8.70;99.90;9.30;98481.00;;;;345883;28;85725;-96
2021/12/26 01:36:30;;;;;;;;;;;8.80;99.90;9.20;98482.00;;;;345758;28;82584;-96
2021/12/26 01:36:47;;;;;;;;;;;8.70;99.90;9.10;98477.00;;;;345932;28;86824;-96
2021/12/26 01:37:01;;;;;;;;;;;8.70;99.90;9.10;98476.00;;;;344516;28;82469;-95
2021/12/26 01:37:15;;;;;;;;;;;8.80;99.90;9.10;98478.00;;;;345834;28;86361;-96
2021/12/26 01:37:27;;;;;;;;;;;8.70;99.90;9.10;98491.00;;;;344170;28;82647;-96
2021/12/26 01:37:45;;;;;;;;;;;8.80;99.90;9.20;98483.00;;;;345590;28;85798;-95
2021/12/26 01:39:47;;;;;;;;;;;8.70;99.90;9.00;98489.00;;;;340259;28;83956;-96
2021/12/26 01:40:01;;;;;;;;;;;8.70;99.90;9.00;98488.00;;;;343094;28;82528;-95
2021/12/26 01:40:34;;;;;;;;;;;8.70;99.90;9.00;98485.00;;;;343060;28;86064;-96
2021/12/26 01:41:08;;;;;;;;;;;8.70;99.90;9.10;98494.00;;;;343952;28;82323;-95
2021/12/26 01:41:30;;;;;;;;;;;8.70;99.90;9.10;98487.00;;;;342872;28;86553;-95
2021/12/26 01:41:49;;;;;;;;;;;8.70;99.90;9.00;98491.00;;;;338802;28;82764;-95
2021/12/26 01:42:10;;;;;;;;;;;8.70;99.90;9.00;98486.00;;;;341617;28;87704;-95
2021/12/26 01:42:35;;;;;;;;;;;8.70;99.90;9.00;98495.00;;;;342890;28;83525;-96
2021/12/26 01:42:54;;;;;;;;;;;8.70;99.90;9.00;98495.00;;;;344437;28;85637;-95
2021/12/26 01:43:40;;;;;;;;;;;8.70;99.90;9.00;98494.00;;;;338914;28;83846;-95
2021/12/26 01:43:59;;;;;;;;;;;8.70;99.90;9.00;98500.00;;;;337554;28;86698;-94
2021/12/26 01:44:34;;;;;;;;;;;8.60;99.90;9.00;98494.00;;;;337713;28;83400;-95
2021/12/26 01:44:59;;;;;;;;;;;8.60;99.90;9.00;98496.00;;;;341563;28;86856;-95
2021/12/26 01:45:16;;;;;;;;;;;8.60;99.90;9.00;98499.00;;;;337755;28;83419;-95
2021/12/26 01:46:00;;;;;;;;;;;8.70;99.90;9.00;98503.00;;;;338957;28;85596;-95
2021/12/26 01:47:08;;;;;;;;;;;8.70;99.90;9.00;98501.00;;;;338995;28;82571;-95
2021/12/26 01:47:47;;;;;;;;;;;8.60;99.90;9.10;98508.00;;;;336103;28;84293;-95
2021/12/26 01:48:53;;;;;;;;;;;8.60;99.90;9.10;98495.00;;;;335990;28;82540;-95
2021/12/26 01:49:35;;;;;;;;;;;8.60;99.90;8.90;98507.00;;;;337413;28;85907;-96
2021/12/26 01:50:04;;;;;;;;;;;8.70;99.90;8.90;98503.00;;;;334053;29;83512;-95
2021/12/26 01:50:19;;;;;;;;;;;8.60;99.90;8.90;98509.00;;;;333462;29;86853;-95
2021/12/26 01:50:33;;;;;;;;;;;8.60;99.90;9.00;98507.00;;;;335961;28;82638;-95
2021/12/26 01:50:55;;;;;;;;;;;8.60;99.90;9.00;98508.00;;;;340272;28;86522;-95
2021/12/26 01:51:37;;;;;;;;;;;8.60;99.90;9.00;98503.00;;;;339181;28;82540;-96
2021/12/26 01:52:08;;;;;;;;;;;8.60;99.90;9.10;98509.00;;;;336274;28;86582;-95
2021/12/26 01:52:26;;;;;;;;;;;8.60;99.90;9.10;98505.00;;;;336184;28;82631;-96
2021/12/26 01:52:50;;;;;;;;;;;8.60;99.90;9.10;98506.00;;;;336263;28;85618;-95
2021/12/26 01:53:42;;;;;;;;;;;8.70;99.90;9.10;98509.00;;;;337592;28;82534;-96
2021/12/26 01:54:06;;;;;;;;;;;8.60;99.90;9.00;98498.00;;;;337710;28;85614;-96
2021/12/26 01:54:37;;;;;;;;;;;8.60;99.90;9.00;98511.00;;;;337585;28;82490;-95
2021/12/26 01:55:11;;;;;;;;;;;8.60;99.90;8.90;98513.00;;;;335094;29;86419;-95
2021/12/26 01:55:45;;;;;;;;;;;8.60;99.90;9.00;98510.00;;;;332874;29;82807;-95
2021/12/26 01:56:08;;;;;;;;;;;8.60;99.90;9.00;98518.00;;;;336844;28;85714;-95
2021/12/26 01:56:23;;;;;;;;;;;8.60;99.90;8.90;98508.00;;;;337477;28;82674;-95
2021/12/26 01:56:40;;;;;;;;;;;8.60;99.90;9.00;98507.00;;;;335006;29;85805;-95
2021/12/26 01:56:56;;;;;;;;;;;8.60;99.90;9.00;98518.00;;;;336427;28;82600;-96
2021/12/26 01:57:11;;;;;;;;;;;8.60;99.90;9.00;98506.00;;;;336186;28;85756;-95
2021/12/26 01:57:27;;;;;;;;;;;8.50;99.90;9.00;98514.00;;;;336415;28;82705;-95
2021/12/26 01:57:49;;;;;;;;;;;8.60;99.90;9.00;98505.00;;;;337533;28;85506;-96
2021/12/26 01:58:01;;;;;;;;;;;8.50;99.90;8.90;98510.00;;;;337682;28;82510;-94
2021/12/26 01:58:23;;;;;;;;;;;8.60;99.90;9.00;98515.00;;;;336378;28;85626;-95
2021/12/26 01:58:41;;;;;;;;;;;8.60;99.90;9.00;98507.00;;;;334774;29;82523;-95
2021/12/26 01:58:59;;;;;;;;;;;8.60;99.90;8.90;98511.00;;;;336268;28;85695;-95
2021/12/26 01:59:13;;;;;;;;;;;8.60;99.90;8.90;98510.00;;;;340246;28;82554;-95
2021/12/26 01:59:30;;;;;;;;;;;8.50;99.90;8.90;98510.00;;;;338998;28;86714;-95
2021/12/26 01:59:45;;;;;;;;;;;8.50;99.90;8.90;98506.00;;;;334875;29;83543;-96
2021/12/26 02:00:30;;;;;;;;;;;8.60;99.90;9.00;98500.00;;;;337640;28;85680;-95
2021/12/26 02:01:24;;;;;;;;;;;8.50;99.90;9.00;98505.00;;;;331124;29;82637;-96
2021/12/26 02:01:41;;;;;;;;;;;8.60;99.90;8.90;98514.00;;;;330389;29;83168;-96
2021/12/26 02:02:05;;;;;;;;;;;8.60;99.90;8.90;98506.00;;;;332924;29;83566;-95
2021/12/26 02:03:05;;;;;;;;;;;;;;;;;;;;;
2021/12/26 02:04:27;;;;;;;;;;;8.60;99.90;9.10;98507.00;;;;336445;28;83455;-95
2021/12/26 02:10:13;;;;;;;;;;;8.50;99.90;9.00;98521.00;;;;328662;29;82461;-95
2021/12/26 02:14:50;;;;;;;;;;;8.50;99.90;8.90;98531.00;;;;341615;28;84857;-95
2021/12/26 02:18:07;;;;;;;;;;;;;;;;;;;;;
2021/12/26 02:35:26;;;;;;;;;;;8.10;99.90;8.50;98518.00;;;;346541;28;82354;-95
2021/12/26 02:36:37;;;;;;;;;;;8.10;99.90;8.70;98516.00;;;;340247;28;83510;-95
2021/12/26 02:37:53;;;;;;;;;;;8.10;99.90;8.70;98508.00;;;;342580;28;85361;-96
2021/12/26 02:39:17;;;;;;;;;;;;;;;;;;;;;
2021/12/26 03:14:38;;;;;;;;;;;8.00;99.90;8.50;98519.00;;;;350642;27;83458;-95
2021/12/26 03:15:10;;;;;;;;;;;8.00;99.90;8.50;98518.00;;;;347214;28;85668;-95
2021/12/26 03:15:51;;;;;;;;;;;;;;;;;;;;;
2021/12/26 03:16:21;;;;;;;;;;;8.00;99.90;8.60;98524.00;;;;348552;27;86776;-94
2021/12/26 03:16:35;;;;;;;;;;;8.00;99.90;8.50;98517.00;;;;347260;28;82606;-95
2021/12/26 03:17:02;;;;;;;;;;;8.00;99.90;8.50;98511.00;;;;342834;28;86737;-95
2021/12/26 03:17:18;;;;;;;;;;;8.00;99.90;8.50;98526.00;;;;345811;28;82426;-94
2021/12/26 03:17:34;;;;;;;;;;;8.00;99.90;8.50;98518.00;;;;347001;28;86756;-95
2021/12/26 03:17:50;;;;;;;;;;;8.00;99.90;8.50;98516.00;;;;347097;28;83511;-95
2021/12/26 03:18:04;;;;;;;;;;;8.00;99.90;8.50;98522.00;;;;345774;28;86706;-95
2021/12/26 03:18:19;;;;;;;;;;;8.00;99.90;8.50;98526.00;;;;343003;28;83407;-95
2021/12/26 03:18:34;;;;;;;;;;;8.00;99.90;8.60;98528.00;;;;345710;28;86522;-95
2021/12/26 03:18:56;;;;;;;;;;;8.10;99.90;8.60;98517.00;;;;348567;27;82605;-95
2021/12/26 03:19:16;;;;;;;;;;;8.10;99.90;8.50;98527.00;;;;345434;28;85728;-95
2021/12/26 03:19:40;;;;;;;;;;;8.10;99.90;8.50;98524.00;;;;346806;28;83477;-94
2021/12/26 03:19:59;;;;;;;;;;;8.10;99.90;8.40;98525.00;;;;344346;28;86524;-95
2021/12/26 03:20:42;;;;;;;;;;;;;;;;;;;;;
2021/12/26 03:21:39;;;;;;;;;;;;;;;;;;;;;
2021/12/26 03:22:18;;;;;;;;;;;8.00;99.90;8.50;98522.00;;;;343024;28;83584;-95
2021/12/26 03:22:46;;;;;;;;;;;8.10;99.90;8.60;98522.00;;;;338358;28;84075;-95
2021/12/26 03:23:01;;;;;;;;;;;8.10;99.90;8.70;98517.00;;;;344189;28;82568;-94
2021/12/26 03:23:22;;;;;;;;;;;8.10;99.90;8.70;98529.00;;;;345401;28;86756;-95
2021/12/26 03:23:34;;;;;;;;;;;8.10;99.90;8.60;98520.00;;;;348348;27;83423;-95
2021/12/26 03:23:49;;;;;;;;;;;8.10;99.90;8.60;98526.00;;;;345583;28;86046;-95
2021/12/26 03:24:04;;;;;;;;;;;8.10;99.90;8.60;98523.00;;;;345767;28;83454;-94
2021/12/26 03:24:16;;;;;;;;;;;8.10;99.90;8.50;98526.00;;;;346694;28;85898;-95
2021/12/26 03:24:28;;;;;;;;;;;8.10;99.90;8.60;98529.00;;;;344344;28;82534;-95
2021/12/26 03:24:43;;;;;;;;;;;8.10;99.90;8.60;98531.00;;;;345684;28;85242;-95
2021/12/26 03:24:55;;;;;;;;;;;8.10;99.90;8.50;98518.00;;;;345751;28;83478;-95
2021/12/26 03:25:12;;;;;;;;;;;8.10;99.90;8.50;98523.00;;;;345584;28;85819;-95
2021/12/26 03:25:24;;;;;;;;;;;8.10;99.90;8.50;98525.00;;;;344077;28;83483;-95
2021/12/26 03:25:36;;;;;;;;;;;8.10;99.90;8.50;98536.00;;;;347803;27;86959;-95
2021/12/26 03:25:55;;;;;;;;;;;8.10;99.90;8.50;98531.00;;;;346916;28;83500;-95
2021/12/26 03:26:07;;;;;;;;;;;8.10;99.90;8.50;98530.00;;;;344417;28;85720;-95
2021/12/26 03:26:20;;;;;;;;;;;8.10;99.90;8.50;98535.00;;;;347197;28;83385;-95
2021/12/26 03:26:31;;;;;;;;;;;8.10;99.90;8.50;98528.00;;;;346997;28;87646;-95
2021/12/26 03:26:46;;;;;;;;;;;8.10;99.90;8.60;98538.00;;;;345769;28;82445;-95
2021/12/26 03:27:06;;;;;;;;;;;8.10;99.90;8.50;98536.00;;;;345622;28;86223;-95
2021/12/26 03:27:22;;;;;;;;;;;8.10;99.90;8.50;98536.00;;;;346981;27;82539;-95
2021/12/26 03:27:34;;;;;;;;;;;8.10;99.90;8.60;98528.00;;;;345664;28;85717;-95
2021/12/26 03:27:46;;;;;;;;;;;8.10;99.90;8.60;98530.00;;;;345668;28;83053;-95
2021/12/26 03:27:58;;;;;;;;;;;8.10;99.90;8.60;98536.00;;;;347073;28;86537;-95
2021/12/26 03:28:10;;;;;;;;;;;8.10;99.90;8.70;98535.00;;;;347192;28;83524;-95
2021/12/26 03:28:22;;;;;;;;;;;8.20;99.90;8.70;98525.00;;;;346917;28;86786;-95
2021/12/26 03:28:34;;;;;;;;;;;8.20;99.90;8.80;98529.00;;;;350229;27;83711;-95
2021/12/26 03:28:49;;;;;;;;;;;8.10;99.90;8.90;98529.00;;;;345771;28;86300;-95
2021/12/26 03:29:01;;;;;;;;;;;8.20;99.90;8.80;98522.00;;;;346851;28;82447;-95
2021/12/26 03:29:13;;;;;;;;;;;8.20;99.90;8.80;98520.00;;;;346965;28;86889;-95
2021/12/26 03:29:25;;;;;;;;;;;8.20;99.90;8.80;98528.00;;;;345737;28;83371;-95
2021/12/26 03:29:37;;;;;;;;;;;8.20;99.90;8.80;98524.00;;;;348568;27;85525;-96
2021/12/26 03:29:49;;;;;;;;;;;8.20;99.90;8.70;98520.00;;;;347121;28;82590;-95
2021/12/26 03:30:03;;;;;;;;;;;8.20;99.90;8.70;98529.00;;;;345705;28;87510;-95
2021/12/26 03:30:22;;;;;;;;;;;8.20;99.90;8.70;98523.00;;;;344352;28;82543;-95
2021/12/26 03:30:37;;;;;;;;;;;8.20;99.90;8.70;98524.00;;;;349534;27;86750;-94
2021/12/26 03:30:57;;;;;;;;;;;8.20;99.90;8.70;98521.00;;;;347127;28;83500;-95
2021/12/26 03:31:13;;;;;;;;;;;8.20;99.90;8.50;98534.00;;;;348452;27;85796;-95
2021/12/26 03:31:25;;;;;;;;;;;8.20;99.90;8.50;98514.00;;;;346886;28;82614;-95
2021/12/26 03:31:41;;;;;;;;;;;8.20;99.90;8.40;98523.00;;;;344345;28;86341;-96
2021/12/26 03:31:53;;;;;;;;;;;8.20;99.90;8.50;98523.00;;;;345346;28;82603;-95
2021/12/26 03:32:08;;;;;;;;;;;8.20;99.90;8.50;98521.00;;;;345791;28;85853;-95
2021/12/26 03:32:20;;;;;;;;;;;8.20;99.90;8.60;98523.00;;;;344264;28;82568;-95
2021/12/26 03:32:33;;;;;;;;;;;8.20;99.90;8.70;98518.00;;;;347068;28;85641;-95
2021/12/26 03:32:49;;;;;;;;;;;8.20;99.90;8.80;98523.00;;;;346975;27;83515;-95
2021/12/26 03:33:04;;;;;;;;;;;8.20;99.90;8.60;98522.00;;;;348394;27;86643;-95
2021/12/26 03:33:16;;;;;;;;;;;8.20;99.90;8.70;98526.00;;;;347175;28;82599;-95
2021/12/26 03:33:28;;;;;;;;;;;8.20;99.90;8.70;98529.00;;;;348448;27;85711;-95
2021/12/26 03:33:40;;;;;;;;;;;8.20;99.90;8.70;98526.00;;;;348333;27;82549;-95
2021/12/26 03:33:52;;;;;;;;;;;8.20;99.90;8.70;98529.00;;;;345635;28;86742;-95
2021/12/26 03:34:06;;;;;;;;;;;8.20;99.90;8.60;98527.00;;;;347091;28;83508;-95
2021/12/26 03:34:18;;;;;;;;;;;8.20;99.90;8.60;98523.00;;;;348353;27;86803;-95
2021/12/26 03:34:34;;;;;;;;;;;8.20;99.90;8.60;98515.00;;;;346648;28;82519;-95
2021/12/26 03:34:49;;;;;;;;;;;8.20;99.90;8.60;98524.00;;;;346967;28;86695;-95
2021/12/26 03:35:04;;;;;;;;;;;8.20;99.90;8.70;98524.00;;;;349832;27;82709;-95
2021/12/26 03:35:19;;;;;;;;;;;8.20;99.90;8.60;98526.00;;;;347170;28;85590;-95
2021/12/26 03:35:33;;;;;;;;;;;8.20;99.90;8.60;98522.00;;;;349288;27;84157;-95
2021/12/26 03:35:48;;;;;;;;;;;8.20;99.90;8.60;98520.00;;;;349774;27;86430;-95
2021/12/26 03:36:00;;;;;;;;;;;8.20;99.90;8.50;98521.00;;;;345729;28;82552;-95
2021/12/26 03:36:14;;;;;;;;;;;8.20;99.90;8.50;98517.00;;;;347033;28;86892;-95
2021/12/26 03:36:32;;;;;;;;;;;8.20;99.90;8.60;98526.00;;;;346991;28;82546;-95
2021/12/26 03:36:44;;;;;;;;;;;8.20;99.90;8.60;98523.00;;;;347064;28;85849;-94
2021/12/26 03:36:56;;;;;;;;;;;8.20;99.90;8.50;98529.00;;;;348483;27;82534;-95
2021/12/26 03:37:10;;;;;;;;;;;8.20;99.90;8.50;98525.00;;;;345590;28;86815;-95
2021/12/26 03:37:23;;;;;;;;;;;8.20;99.90;8.50;98519.00;;;;346934;27;83450;-94
2021/12/26 03:37:36;;;;;;;;;;;8.20;99.90;8.50;98521.00;;;;348248;27;89651;-95
2021/12/26 03:37:57;;;;;;;;;;;8.20;99.90;8.50;98526.00;;;;346936;27;82425;-95
2021/12/26 03:38:12;;;;;;;;;;;8.20;99.90;8.60;98527.00;;;;345629;28;86905;-96
2021/12/26 03:38:37;;;;;;;;;;;8.20;99.90;8.60;98526.00;;;;345675;28;83424;-94
2021/12/26 03:38:55;;;;;;;;;;;8.20;99.90;8.60;98521.00;;;;345625;28;85847;-95
2021/12/26 03:39:19;;;;;;;;;;;8.20;99.90;8.60;98528.00;;;;347118;28;82519;-95
2021/12/26 03:39:38;;;;;;;;;;;8.20;99.90;8.60;98517.00;;;;348435;27;85779;-96
2021/12/26 03:40:45;;;;;;;;;;;8.20;99.90;8.60;98526.00;;;;345696;28;82498;-95
2021/12/26 03:42:01;;;;;;;;;;;8.20;99.90;8.50;98525.00;;;;342901;28;83980;-95
2021/12/26 03:43:12;;;;;;;;;;;;;;;;;;;;;
2021/12/26 03:44:08;;;;;;;;;;;8.10;99.90;8.70;98519.00;;;;342288;28;85771;-95
2021/12/26 03:44:34;;;;;;;;;;;8.10;99.90;8.50;98514.00;;;;340246;28;82621;-95
2021/12/26 03:45:39;;;;;;;;;;;;;;;;;;;;;
2021/12/26 03:46:02;;;;;;;;;;;8.10;99.90;8.50;98521.00;;;;335960;28;82565;-95
2021/12/26 03:46:52;;;;;;;;;;;8.10;99.90;8.40;98525.00;;;;336016;29;83778;-95
2021/12/26 03:47:09;;;;;;;;;;;8.10;99.90;8.40;98517.00;;;;335065;29;82700;-95
2021/12/26 03:47:51;;;;;;;;;;;8.10;99.90;8.50;98524.00;;;;334317;29;83592;-95
2021/12/26 03:49:08;;;;;;;;;;;8.10;99.90;8.50;98515.00;;;;334963;29;82736;-95
2021/12/26 03:51:04;;;;;;;;;;;8.10;99.90;8.50;98525.00;;;;336052;28;82590;-95
2021/12/26 03:51:33;;;;;;;;;;;8.10;99.90;8.50;98527.00;;;;334288;29;82909;-95
2021/12/26 03:52:06;;;;;;;;;;;8.10;99.90;8.40;98526.00;;;;336176;28;82685;-95
2021/12/26 03:52:22;;;;;;;;;;;8.10;99.90;8.40;98519.00;;;;333443;29;85531;-94
2021/12/26 03:52:36;;;;;;;;;;;8.10;99.90;8.40;98522.00;;;;334179;29;83476;-95
2021/12/26 03:52:50;;;;;;;;;;;8.00;99.90;8.40;98525.00;;;;333495;29;84852;-95
2021/12/26 03:53:02;;;;;;;;;;;8.10;99.90;8.40;98521.00;;;;334919;29;83449;-96
2021/12/26 03:53:24;;;;;;;;;;;8.10;99.90;8.50;98530.00;;;;334269;29;84177;-95
2021/12/26 03:53:41;;;;;;;;;;;8.10;99.90;8.50;98521.00;;;;336258;28;82344;-96
2021/12/26 03:53:56;;;;;;;;;;;8.10;99.90;8.40;98514.00;;;;336274;29;86662;-95
2021/12/26 03:54:35;;;;;;;;;;;8.10;99.90;8.40;98519.00;;;;333698;29;82897;-95
2021/12/26 03:54:48;;;;;;;;;;;8.10;99.90;8.40;98524.00;;;;337544;28;84457;-96
2021/12/26 03:55:05;;;;;;;;;;;8.10;99.90;8.40;98531.00;;;;337391;28;82438;-95
2021/12/26 03:55:19;;;;;;;;;;;8.10;99.90;8.40;98522.00;;;;337525;28;85368;-95
2021/12/26 03:55:50;;;;;;;;;;;8.10;99.90;8.40;98523.00;;;;335918;29;83492;-95
2021/12/26 03:56:09;;;;;;;;;;;8.10;99.90;8.40;98520.00;;;;335159;29;85260;-95
2021/12/26 03:56:22;;;;;;;;;;;8.10;99.90;8.50;98514.00;;;;338756;28;83400;-95
2021/12/26 03:57:00;;;;;;;;;;;8.00;99.90;8.30;98525.00;;;;333648;29;84230;-95
2021/12/26 03:57:18;;;;;;;;;;;8.00;99.90;8.50;98523.00;;;;333382;29;83588;-95
2021/12/26 03:57:34;;;;;;;;;;;8.00;99.90;8.70;98517.00;;;;332319;29;83152;-95
2021/12/26 03:58:17;;;;;;;;;;;8.10;99.90;8.50;98527.00;;;;336160;28;82732;-95
2021/12/26 03:58:38;;;;;;;;;;;8.10;99.90;8.40;98524.00;;;;334226;28;84662;-95
2021/12/26 03:58:51;;;;;;;;;;;8.00;99.90;8.30;98529.00;;;;336303;28;83566;-95
2021/12/26 03:59:06;;;;;;;;;;;8.00;99.90;8.40;98527.00;;;;334516;29;83425;-95
2021/12/26 03:59:20;;;;;;;;;;;8.00;99.90;8.40;98522.00;;;;336309;28;82596;-95
2021/12/26 04:00:13;;;;;;;;;;;8.00;99.90;8.40;98529.00;;;;336140;28;84258;-95
2021/12/26 04:00:29;;;;;;;;;;;8.00;99.90;8.40;98527.00;;;;337134;28;83683;-95
2021/12/26 04:01:07;;;;;;;;;;;8.00;99.90;8.20;98528.00;;;;341450;28;86819;-95
2021/12/26 04:01:38;;;;;;;;;;;8.00;99.90;8.20;98519.00;;;;340091;28;82640;-95
2021/12/26 04:02:33;;;;;;;;;;;;;;;;;;;;;
2021/12/26 04:03:30;;;;;;;;;;;;;;;;;;;;;
2021/12/26 04:04:26;;;;;;;;;;;7.90;99.90;8.20;98535.00;;;;333593;29;84215;-95
2021/12/26 04:04:54;;;;;;;;;;;7.80;99.90;8.10;98537.00;;;;335494;28;82415;-95
2021/12/26 04:06:27;;;;;;;;;;;7.80;99.90;8.00;98529.00;;;;331189;29;83437;-95
2021/12/26 04:07:04;;;;;;;;;;;7.80;99.90;8.10;98526.00;;;;338523;28;85029;-94
2021/12/26 04:07:49;;;;;;;;;;;7.70;99.90;8.10;98538.00;;;;335939;28;83600;-95
2021/12/26 04:08:15;;;;;;;;;;;7.70;99.90;8.00;98540.00;;;;337552;28;86024;-95
2021/12/26 04:08:37;;;;;;;;;;;7.70;99.90;8.00;98536.00;;;;340637;28;83441;-94
2021/12/26 04:08:51;;;;;;;;;;;7.70;99.90;8.00;98540.00;;;;337402;28;87932;-94
2021/12/26 04:09:08;;;;;;;;;;;7.70;99.90;7.90;98538.00;;;;336202;28;83530;-94
2021/12/26 04:09:29;;;;;;;;;;;7.70;99.90;7.90;98541.00;;;;338661;28;88612;-94
2021/12/26 04:09:46;;;;;;;;;;;7.70;99.90;7.90;98535.00;;;;337549;28;82456;-95
2021/12/26 04:10:01;;;;;;;;;;;7.70;99.90;8.00;98537.00;;;;333619;29;86031;-95
2021/12/26 04:10:26;;;;;;;;;;;7.70;99.90;8.00;98538.00;;;;338898;28;82591;-95
2021/12/26 04:10:54;;;;;;;;;;;7.70;99.90;7.90;98542.00;;;;337274;28;83701;-95
2021/12/26 04:11:24;;;;;;;;;;;7.70;99.90;8.00;98535.00;;;;337518;28;83530;-95
2021/12/26 04:11:41;;;;;;;;;;;7.70;99.90;8.00;98539.00;;;;337431;28;85611;-94
2021/12/26 04:12:07;;;;;;;;;;;7.70;99.90;8.10;98542.00;;;;333733;29;83396;-95
2021/12/26 04:12:19;;;;;;;;;;;7.70;99.90;8.10;98531.00;;;;336188;28;86868;-95
2021/12/26 04:12:55;;;;;;;;;;;7.70;99.90;8.00;98534.00;;;;336198;28;83248;-95
2021/12/26 04:13:15;;;;;;;;;;;7.70;99.90;8.00;98535.00;;;;340120;28;86549;-95
2021/12/26 04:13:30;;;;;;;;;;;7.70;99.90;8.00;98534.00;;;;338782;28;88289;-96
2021/12/26 04:13:43;;;;;;;;;;;7.60;99.90;8.10;98547.00;;;;336987;28;86468;-95
2021/12/26 04:13:57;;;;;;;;;;;7.70;99.90;8.10;98546.00;;;;338866;28;82533;-95
2021/12/26 04:14:17;;;;;;;;;;;7.70;99.90;8.10;98542.00;;;;336114;28;85442;-95
2021/12/26 04:14:31;;;;;;;;;;;7.70;99.90;8.00;98544.00;;;;338828;28;82685;-94
2021/12/26 04:14:46;;;;;;;;;;;7.70;99.90;8.10;98536.00;;;;339190;28;86596;-95
2021/12/26 04:15:00;;;;;;;;;;;7.70;99.90;8.10;98542.00;;;;337703;28;83528;-95
2021/12/26 04:15:20;;;;;;;;;;;7.70;99.90;8.00;98531.00;;;;337883;28;87078;-95
2021/12/26 04:15:33;;;;;;;;;;;7.70;99.90;8.00;98535.00;;;;336630;28;83497;-95
2021/12/26 04:15:45;;;;;;;;;;;7.70;99.90;8.20;98543.00;;;;336373;28;86416;-95
2021/12/26 04:15:58;;;;;;;;;;;7.70;99.90;8.20;98537.00;;;;335390;28;82589;-95
2021/12/26 04:16:17;;;;;;;;;;;7.70;99.90;8.10;98542.00;;;;336607;28;86983;-95
2021/12/26 04:16:32;;;;;;;;;;;7.70;99.90;8.10;98546.00;;;;332302;29;83687;-95
2021/12/26 04:16:44;;;;;;;;;;;7.70;99.90;8.10;98537.00;;;;336390;28;85735;-95
2021/12/26 04:16:56;;;;;;;;;;;7.70;99.90;8.10;98539.00;;;;338145;28;82499;-95
2021/12/26 04:17:09;;;;;;;;;;;7.70;99.90;8.00;98537.00;;;;336633;28;85576;-95
2021/12/26 04:17:21;;;;;;;;;;;7.70;99.90;8.00;98535.00;;;;336723;28;82711;-94
2021/12/26 04:17:39;;;;;;;;;;;7.70;99.90;8.00;98535.00;;;;335203;28;86677;-95
2021/12/26 04:17:54;;;;;;;;;;;7.70;99.90;7.90;98537.00;;;;335394;28;83481;-95
2021/12/26 04:18:09;;;;;;;;;;;7.70;99.90;7.90;98543.00;;;;337832;28;86885;-95
2021/12/26 04:18:21;;;;;;;;;;;7.70;99.90;8.00;98543.00;;;;335320;29;82578;-95
2021/12/26 04:18:33;;;;;;;;;;;7.70;99.90;8.00;98538.00;;;;335246;28;86498;-94
2021/12/26 04:18:49;;;;;;;;;;;7.70;99.90;8.10;98537.00;;;;338042;28;82598;-95
2021/12/26 04:19:01;;;;;;;;;;;7.70;99.90;8.10;98529.00;;;;334024;29;85936;-95
2021/12/26 04:19:13;;;;;;;;;;;7.70;99.90;8.10;98539.00;;;;335246;28;82576;-95
2021/12/26 04:19:25;;;;;;;;;;;7.70;99.90;8.00;98543.00;;;;335234;28;87685;-94
2021/12/26 04:19:37;;;;;;;;;;;7.70;99.90;8.10;98538.00;;;;334084;29;83480;-94
2021/12/26 04:19:48;;;;;;;;;;;7.70;99.90;8.10;98536.00;;;;335221;29;86722;-95
2021/12/26 04:20:00;;;;;;;;;;;7.70;99.90;8.10;98541.00;;;;337548;28;83545;-96
2021/12/26 04:20:13;;;;;;;;;;;7.70;99.90;8.10;98543.00;;;;337963;28;86405;-94